sensor_id;sensor_type;location;lat;lon;timestamp;P1;P2;P0
55754;PMS5003;41674;52.290;-1.474;2023-05-10T00:01:14;25;20;
55754;PMS5003;41674;52.290;-1.474;2023-05-10T00:03:43;22;22;
55754;PMS5003;41674;52.290;-1.474;2023-05-10T00:06:13;20;18;
55754;PMS5003;41674;52.290;-1.474;2023-05-10T00:08:42;26;25;
55754;PMS5003;41674;52.290;-1.474;2023-05-10T00:11:13;23;19;
55754;PMS5003;41674;52.290;-1.474;2023-05-10T00:13:41;26;20;
55754;PMS5003;41674;52.290;-1.474;2023-05-10T00:16:11;16;16;
55754;PMS5003;41674;52.290;-1.474;2023-05-10T00:18:41;23;22;
55754;PMS5003;41674;52.290;-1.474;2023-05-10T00:21:11;22;19;
55754;PMS5003;41674;52.290;-1.474;2023-05-10T00:23:40;17;16;
55754;PMS5003;41674;52.290;-1.474;2023-05-10T00:26:09;19;19;
55754;PMS5003;41674;52.290;-1.474;2023-05-10T00:28:44;17;17;
55754;PMS5003;41674;52.290;-1.474;2023-05-10T00:31:08;17;14;
55754;PMS5003;41674;52.290;-1.474;2023-05-10T00:33:38;18;15;
55754;PMS5003;41674;52.290;-1.474;2023-05-10T00:36:07;14;13;
55754;PMS5003;41674;52.290;-1.474;2023-05-10T00:38:36;13;12;
55754;PMS5003;41674;52.290;-1.474;2023-05-10T00:41:05;16;15;
55754;PMS5003;41674;52.290;-1.474;2023-05-10T00:43:35;12;11;
55754;PMS5003;41674;52.290;-1.474;2023-05-10T00:46:04;13;13;
55754;PMS5003;41674;52.290;-1.474;2023-05-10T00:48:34;11;10;
55754;PMS5003;41674;52.290;-1.474;2023-05-10T00:51:04;16;13;
55754;PMS5003;41674;52.290;-1.474;2023-05-10T00:53:33;16;14;
55754;PMS5003;41674;52.290;-1.474;2023-05-10T00:56:02;19;16;
55754;PMS5003;41674;52.290;-1.474;2023-05-10T00:58:32;14;14;
55754;PMS5003;41674;52.290;-1.474;2023-05-10T01:01:01;15;11;
55754;PMS5003;41674;52.290;-1.474;2023-05-10T01:03:31;16;11;
55754;PMS5003;41674;52.290;-1.474;2023-05-10T01:06:00;15;12;
55754;PMS5003;41674;52.290;-1.474;2023-05-10T01:08:30;20;15;
55754;PMS5003;41674;52.290;-1.474;2023-05-10T01:10:59;21;15;
55754;PMS5003;41674;52.290;-1.474;2023-05-10T01:13:31;16;16;
55754;PMS5003;41674;52.290;-1.474;2023-05-10T01:15:58;16;16;
55754;PMS5003;41674;52.290;-1.474;2023-05-10T01:18:28;16;14;
55754;PMS5003;41674;52.290;-1.474;2023-05-10T01:21:01;15;14;
55754;PMS5003;41674;52.290;-1.474;2023-05-10T01:23:33;13;13;
55754;PMS5003;41674;52.290;-1.474;2023-05-10T01:26:07;16;15;
55754;PMS5003;41674;52.290;-1.474;2023-05-10T01:28:35;17;16;
55754;PMS5003;41674;52.290;-1.474;2023-05-10T01:33:26;17;14;
55754;PMS5003;41674;52.290;-1.474;2023-05-10T01:35:57;17;17;
55754;PMS5003;41674;52.290;-1.474;2023-05-10T01:38:27;19;17;
55754;PMS5003;41674;52.290;-1.474;2023-05-10T01:40:57;21;19;
55754;PMS5003;41674;52.290;-1.474;2023-05-10T01:43:25;17;16;
55754;PMS5003;41674;52.290;-1.474;2023-05-10T01:45:57;19;18;
55754;PMS5003;41674;52.290;-1.474;2023-05-10T01:48:22;19;17;
55754;PMS5003;41674;52.290;-1.474;2023-05-10T01:50:52;24;21;
55754;PMS5003;41674;52.290;-1.474;2023-05-10T01:53:21;21;19;
55754;PMS5003;41674;52.290;-1.474;2023-05-10T01:55:52;22;18;
55754;PMS5003;41674;52.290;-1.474;2023-05-10T01:58:22;16;15;
55754;PMS5003;41674;52.290;-1.474;2023-05-10T02:00:50;17;15;
55754;PMS5003;41674;52.290;-1.474;2023-05-10T02:03:20;21;20;
55754;PMS5003;41674;52.290;-1.474;2023-05-10T02:05:48;18;18;
55754;PMS5003;41674;52.290;-1.474;2023-05-10T02:08:18;20;17;
55754;PMS5003;41674;52.290;-1.474;2023-05-10T02:10:47;15;15;
55754;PMS5003;41674;52.290;-1.474;2023-05-10T02:13:17;14;13;
55754;PMS5003;41674;52.290;-1.474;2023-05-10T02:15:48;18;17;
55754;PMS5003;41674;52.290;-1.474;2023-05-10T02:18:16;14;13;
55754;PMS5003;41674;52.290;-1.474;2023-05-10T02:20:46;16;15;
55754;PMS5003;41674;52.290;-1.474;2023-05-10T02:23:16;17;14;
55754;PMS5003;41674;52.290;-1.474;2023-05-10T02:25:45;16;13;
55754;PMS5003;41674;52.290;-1.474;2023-05-10T02:28:15;16;14;
55754;PMS5003;41674;52.290;-1.474;2023-05-10T02:30:44;16;15;
55754;PMS5003;41674;52.290;-1.474;2023-05-10T02:33:14;23;17;
55754;PMS5003;41674;52.290;-1.474;2023-05-10T02:35:43;16;16;
55754;PMS5003;41674;52.290;-1.474;2023-05-10T02:38:13;16;14;
55754;PMS5003;41674;52.290;-1.474;2023-05-10T02:40:43;17;14;
55754;PMS5003;41674;52.290;-1.474;2023-05-10T02:43:12;17;16;
55754;PMS5003;41674;52.290;-1.474;2023-05-10T02:45:41;25;19;
55754;PMS5003;41674;52.290;-1.474;2023-05-10T02:48:11;14;14;
55754;PMS5003;41674;52.290;-1.474;2023-05-10T02:50:41;14;11;
55754;PMS5003;41674;52.290;-1.474;2023-05-10T02:53:11;15;15;
55754;PMS5003;41674;52.290;-1.474;2023-05-10T02:55:40;17;15;
55754;PMS5003;41674;52.290;-1.474;2023-05-10T02:58:09;15;15;
55754;PMS5003;41674;52.290;-1.474;2023-05-10T03:00:38;15;13;
55754;PMS5003;41674;52.290;-1.474;2023-05-10T03:03:07;14;14;
55754;PMS5003;41674;52.290;-1.474;2023-05-10T03:05:37;12;11;
55754;PMS5003;41674;52.290;-1.474;2023-05-10T03:08:06;12;12;
55754;PMS5003;41674;52.290;-1.474;2023-05-10T03:10:38;13;12;
55754;PMS5003;41674;52.290;-1.474;2023-05-10T03:13:09;16;13;
55754;PMS5003;41674;52.290;-1.474;2023-05-10T03:15:37;15;14;
55754;PMS5003;41674;52.290;-1.474;2023-05-10T03:18:05;12;10;
55754;PMS5003;41674;52.290;-1.474;2023-05-10T03:20:35;11;11;
55754;PMS5003;41674;52.290;-1.474;2023-05-10T03:23:04;8;8;
55754;PMS5003;41674;52.290;-1.474;2023-05-10T03:25:32;9;9;
55754;PMS5003;41674;52.290;-1.474;2023-05-10T03:28:02;11;9;
55754;PMS5003;41674;52.290;-1.474;2023-05-10T03:30:31;12;11;
55754;PMS5003;41674;52.290;-1.474;2023-05-10T03:33:04;10;10;
55754;PMS5003;41674;52.290;-1.474;2023-05-10T03:35:30;16;11;
55754;PMS5003;41674;52.290;-1.474;2023-05-10T03:38:00;10;10;
55754;PMS5003;41674;52.290;-1.474;2023-05-10T03:40:30;13;13;
55754;PMS5003;41674;52.290;-1.474;2023-05-10T03:42:59;9;9;
55754;PMS5003;41674;52.290;-1.474;2023-05-10T03:45:29;9;9;
55754;PMS5003;41674;52.290;-1.474;2023-05-10T03:47:58;14;11;
55754;PMS5003;41674;52.290;-1.474;2023-05-10T03:50:27;10;10;
55754;PMS5003;41674;52.290;-1.474;2023-05-10T03:52:57;10;9;
55754;PMS5003;41674;52.290;-1.474;2023-05-10T03:55:27;10;8;
55754;PMS5003;41674;52.290;-1.474;2023-05-10T03:57:56;9;9;
55754;PMS5003;41674;52.290;-1.474;2023-05-10T04:00:26;11;11;
55754;PMS5003;41674;52.290;-1.474;2023-05-10T04:02:55;8;7;
55754;PMS5003;41674;52.290;-1.474;2023-05-10T04:05:25;9;9;
55754;PMS5003;41674;52.290;-1.474;2023-05-10T04:07:54;9;8;
55754;PMS5003;41674;52.290;-1.474;2023-05-10T04:10:24;13;10;
55754;PMS5003;41674;52.290;-1.474;2023-05-10T04:12:53;7;7;
55754;PMS5003;41674;52.290;-1.474;2023-05-10T04:15:23;6;6;
55754;PMS5003;41674;52.290;-1.474;2023-05-10T04:17:53;8;6;
55754;PMS5003;41674;52.290;-1.474;2023-05-10T04:20:22;10;8;
55754;PMS5003;41674;52.290;-1.474;2023-05-10T04:22:52;8;8;
55754;PMS5003;41674;52.290;-1.474;2023-05-10T04:25:21;13;10;
55754;PMS5003;41674;52.290;-1.474;2023-05-10T04:27:51;7;7;
55754;PMS5003;41674;52.290;-1.474;2023-05-10T04:30:20;7;7;
55754;PMS5003;41674;52.290;-1.474;2023-05-10T04:32:50;8;8;
55754;PMS5003;41674;52.290;-1.474;2023-05-10T04:35:19;10;7;
55754;PMS5003;41674;52.290;-1.474;2023-05-10T04:37:49;6;6;
55754;PMS5003;41674;52.290;-1.474;2023-05-10T04:40:19;6;6;
55754;PMS5003;41674;52.290;-1.474;2023-05-10T04:42:48;7;7;
55754;PMS5003;41674;52.290;-1.474;2023-05-10T04:45:18;7;7;
55754;PMS5003;41674;52.290;-1.474;2023-05-10T04:47:48;8;7;
55754;PMS5003;41674;52.290;-1.474;2023-05-10T04:50:17;8;5;
55754;PMS5003;41674;52.290;-1.474;2023-05-10T04:52:47;8;7;
55754;PMS5003;41674;52.290;-1.474;2023-05-10T04:55:16;5;5;
55754;PMS5003;41674;52.290;-1.474;2023-05-10T04:57:45;8;8;
55754;PMS5003;41674;52.290;-1.474;2023-05-10T05:00:15;6;5;
55754;PMS5003;41674;52.290;-1.474;2023-05-10T05:02:45;5;5;
55754;PMS5003;41674;52.290;-1.474;2023-05-10T05:05:14;8;5;
55754;PMS5003;41674;52.290;-1.474;2023-05-10T05:07:43;6;5;
55754;PMS5003;41674;52.290;-1.474;2023-05-10T05:10:13;4;4;
55754;PMS5003;41674;52.290;-1.474;2023-05-10T05:12:43;5;5;
55754;PMS5003;41674;52.290;-1.474;2023-05-10T05:15:12;6;6;
55754;PMS5003;41674;52.290;-1.474;2023-05-10T05:17:42;5;5;
55754;PMS5003;41674;52.290;-1.474;2023-05-10T05:20:12;5;4;
55754;PMS5003;41674;52.290;-1.474;2023-05-10T05:22:41;7;6;
55754;PMS5003;41674;52.290;-1.474;2023-05-10T05:25:11;4;4;
55754;PMS5003;41674;52.290;-1.474;2023-05-10T05:27:40;5;5;
55754;PMS5003;41674;52.290;-1.474;2023-05-10T05:30:10;7;6;
55754;PMS5003;41674;52.290;-1.474;2023-05-10T05:32:39;6;5;
55754;PMS5003;41674;52.290;-1.474;2023-05-10T05:35:09;6;6;
55754;PMS5003;41674;52.290;-1.474;2023-05-10T05:37:39;8;6;
55754;PMS5003;41674;52.290;-1.474;2023-05-10T05:40:11;6;6;
55754;PMS5003;41674;52.290;-1.474;2023-05-10T05:42:38;9;7;
55754;PMS5003;41674;52.290;-1.474;2023-05-10T05:45:08;9;7;
55754;PMS5003;41674;52.290;-1.474;2023-05-10T05:47:37;6;6;
55754;PMS5003;41674;52.290;-1.474;2023-05-10T05:50:07;11;6;
55754;PMS5003;41674;52.290;-1.474;2023-05-10T05:52:36;7;7;
55754;PMS5003;41674;52.290;-1.474;2023-05-10T05:55:06;9;7;
55754;PMS5003;41674;52.290;-1.474;2023-05-10T05:57:35;7;7;
55754;PMS5003;41674;52.290;-1.474;2023-05-10T06:00:06;6;6;
55754;PMS5003;41674;52.290;-1.474;2023-05-10T06:02:35;6;6;
55754;PMS5003;41674;52.290;-1.474;2023-05-10T06:05:05;4;4;
55754;PMS5003;41674;52.290;-1.474;2023-05-10T06:07:34;6;6;
55754;PMS5003;41674;52.290;-1.474;2023-05-10T06:10:04;9;8;
55754;PMS5003;41674;52.290;-1.474;2023-05-10T06:12:33;8;6;
55754;PMS5003;41674;52.290;-1.474;2023-05-10T06:15:03;9;6;
55754;PMS5003;41674;52.290;-1.474;2023-05-10T06:17:32;7;6;
55754;PMS5003;41674;52.290;-1.474;2023-05-10T06:20:02;9;8;
55754;PMS5003;41674;52.290;-1.474;2023-05-10T06:22:31;6;6;
55754;PMS5003;41674;52.290;-1.474;2023-05-10T06:25:00;7;6;
55754;PMS5003;41674;52.290;-1.474;2023-05-10T06:27:30;7;6;
55754;PMS5003;41674;52.290;-1.474;2023-05-10T06:30:00;7;7;
55754;PMS5003;41674;52.290;-1.474;2023-05-10T06:32:29;6;6;
55754;PMS5003;41674;52.290;-1.474;2023-05-10T06:34:59;11;7;
55754;PMS5003;41674;52.290;-1.474;2023-05-10T06:37:28;9;6;
55754;PMS5003;41674;52.290;-1.474;2023-05-10T06:39:58;7;7;
55754;PMS5003;41674;52.290;-1.474;2023-05-10T06:42:28;8;6;
55754;PMS5003;41674;52.290;-1.474;2023-05-10T06:44:57;7;6;
55754;PMS5003;41674;52.290;-1.474;2023-05-10T06:47:27;4;4;
55754;PMS5003;41674;52.290;-1.474;2023-05-10T06:49:56;9;8;
55754;PMS5003;41674;52.290;-1.474;2023-05-10T06:52:26;8;8;
55754;PMS5003;41674;52.290;-1.474;2023-05-10T06:54:55;6;6;
55754;PMS5003;41674;52.290;-1.474;2023-05-10T06:57:25;8;8;
55754;PMS5003;41674;52.290;-1.474;2023-05-10T06:59:54;4;3;
55754;PMS5003;41674;52.290;-1.474;2023-05-10T07:02:24;8;7;
55754;PMS5003;41674;52.290;-1.474;2023-05-10T07:04:53;9;5;
55754;PMS5003;41674;52.290;-1.474;2023-05-10T07:07:23;7;5;
55754;PMS5003;41674;52.290;-1.474;2023-05-10T07:09:53;4;4;
55754;PMS5003;41674;52.290;-1.474;2023-05-10T07:12:22;9;8;
55754;PMS5003;41674;52.290;-1.474;2023-05-10T07:14:52;6;6;
55754;PMS5003;41674;52.290;-1.474;2023-05-10T07:17:21;10;6;
55754;PMS5003;41674;52.290;-1.474;2023-05-10T07:19:51;5;5;
55754;PMS5003;41674;52.290;-1.474;2023-05-10T07:22:20;10;9;
55754;PMS5003;41674;52.290;-1.474;2023-05-10T07:24:50;4;3;
55754;PMS5003;41674;52.290;-1.474;2023-05-10T07:27:20;6;5;
55754;PMS5003;41674;52.290;-1.474;2023-05-10T07:29:49;7;5;
55754;PMS5003;41674;52.290;-1.474;2023-05-10T07:32:19;7;6;
55754;PMS5003;41674;52.290;-1.474;2023-05-10T07:34:48;6;6;
55754;PMS5003;41674;52.290;-1.474;2023-05-10T07:37:18;6;6;
55754;PMS5003;41674;52.290;-1.474;2023-05-10T07:39:47;8;5;
55754;PMS5003;41674;52.290;-1.474;2023-05-10T07:42:17;6;6;
55754;PMS5003;41674;52.290;-1.474;2023-05-10T07:44:46;9;6;
55754;PMS5003;41674;52.290;-1.474;2023-05-10T07:47:16;6;5;
55754;PMS5003;41674;52.290;-1.474;2023-05-10T07:49:45;6;6;
55754;PMS5003;41674;52.290;-1.474;2023-05-10T07:52:15;6;6;
55754;PMS5003;41674;52.290;-1.474;2023-05-10T07:54:44;6;5;
55754;PMS5003;41674;52.290;-1.474;2023-05-10T07:57:14;6;6;
55754;PMS5003;41674;52.290;-1.474;2023-05-10T07:59:43;5;5;
55754;PMS5003;41674;52.290;-1.474;2023-05-10T08:02:13;5;4;
55754;PMS5003;41674;52.290;-1.474;2023-05-10T08:04:42;8;8;
55754;PMS5003;41674;52.290;-1.474;2023-05-10T08:07:12;8;8;
55754;PMS5003;41674;52.290;-1.474;2023-05-10T08:09:42;6;5;
55754;PMS5003;41674;52.290;-1.474;2023-05-10T08:12:11;8;7;
55754;PMS5003;41674;52.290;-1.474;2023-05-10T08:14:41;6;5;
55754;PMS5003;41674;52.290;-1.474;2023-05-10T08:17:10;7;6;
55754;PMS5003;41674;52.290;-1.474;2023-05-10T08:19:40;6;4;
55754;PMS5003;41674;52.290;-1.474;2023-05-10T08:22:09;6;5;
55754;PMS5003;41674;52.290;-1.474;2023-05-10T08:24:39;5;5;
55754;PMS5003;41674;52.290;-1.474;2023-05-10T08:27:08;5;5;
55754;PMS5003;41674;52.290;-1.474;2023-05-10T08:29:38;5;5;
55754;PMS5003;41674;52.290;-1.474;2023-05-10T08:32:08;5;5;
55754;PMS5003;41674;52.290;-1.474;2023-05-10T08:34:37;6;6;
55754;PMS5003;41674;52.290;-1.474;2023-05-10T08:37:07;7;4;
55754;PMS5003;41674;52.290;-1.474;2023-05-10T08:39:36;6;6;
55754;PMS5003;41674;52.290;-1.474;2023-05-10T08:42:06;5;5;
55754;PMS5003;41674;52.290;-1.474;2023-05-10T08:44:36;5;4;
55754;PMS5003;41674;52.290;-1.474;2023-05-10T08:47:05;7;5;
55754;PMS5003;41674;52.290;-1.474;2023-05-10T08:49:34;6;5;
55754;PMS5003;41674;52.290;-1.474;2023-05-10T08:52:04;3;3;
55754;PMS5003;41674;52.290;-1.474;2023-05-10T08:54:33;4;4;
55754;PMS5003;41674;52.290;-1.474;2023-05-10T08:57:03;6;5;
55754;PMS5003;41674;52.290;-1.474;2023-05-10T08:59:32;3;3;
55754;PMS5003;41674;52.290;-1.474;2023-05-10T09:02:02;5;4;
55754;PMS5003;41674;52.290;-1.474;2023-05-10T09:04:31;5;5;
55754;PMS5003;41674;52.290;-1.474;2023-05-10T09:07:01;7;5;
55754;PMS5003;41674;52.290;-1.474;2023-05-10T09:09:31;5;4;
55754;PMS5003;41674;52.290;-1.474;2023-05-10T09:12:00;5;5;
55754;PMS5003;41674;52.290;-1.474;2023-05-10T09:14:30;4;4;
55754;PMS5003;41674;52.290;-1.474;2023-05-10T09:16:59;4;3;
55754;PMS5003;41674;52.290;-1.474;2023-05-10T09:19:29;6;5;
55754;PMS5003;41674;52.290;-1.474;2023-05-10T09:21:58;4;4;
55754;PMS5003;41674;52.290;-1.474;2023-05-10T09:24:29;3;3;
55754;PMS5003;41674;52.290;-1.474;2023-05-10T09:26:57;3;3;
55754;PMS5003;41674;52.290;-1.474;2023-05-10T09:29:27;5;4;
55754;PMS5003;41674;52.290;-1.474;2023-05-10T09:31:56;5;5;
55754;PMS5003;41674;52.290;-1.474;2023-05-10T09:34:28;3;3;
55754;PMS5003;41674;52.290;-1.474;2023-05-10T09:36:56;3;3;
55754;PMS5003;41674;52.290;-1.474;2023-05-10T09:39:30;7;5;
55754;PMS5003;41674;52.290;-1.474;2023-05-10T09:41:54;6;5;
55754;PMS5003;41674;52.290;-1.474;2023-05-10T09:44:25;5;5;
55754;PMS5003;41674;52.290;-1.474;2023-05-10T09:46:54;4;4;
55754;PMS5003;41674;52.290;-1.474;2023-05-10T09:49:23;4;4;
55754;PMS5003;41674;52.290;-1.474;2023-05-10T09:52:01;4;4;
55754;PMS5003;41674;52.290;-1.474;2023-05-10T09:54:22;2;2;
55754;PMS5003;41674;52.290;-1.474;2023-05-10T09:56:51;3;3;
55754;PMS5003;41674;52.290;-1.474;2023-05-10T09:59:21;3;3;
55754;PMS5003;41674;52.290;-1.474;2023-05-10T10:01:51;2;2;
55754;PMS5003;41674;52.290;-1.474;2023-05-10T10:04:20;3;3;
55754;PMS5003;41674;52.290;-1.474;2023-05-10T10:09:19;5;4;
55754;PMS5003;41674;52.290;-1.474;2023-05-10T10:11:48;4;4;
55754;PMS5003;41674;52.290;-1.474;2023-05-10T10:14:18;2;2;
55754;PMS5003;41674;52.290;-1.474;2023-05-10T10:16:48;6;4;
55754;PMS5003;41674;52.290;-1.474;2023-05-10T10:19:18;2;2;
55754;PMS5003;41674;52.290;-1.474;2023-05-10T10:21:47;6;4;
55754;PMS5003;41674;52.290;-1.474;2023-05-10T10:24:16;2;2;
55754;PMS5003;41674;52.290;-1.474;2023-05-10T10:26:46;2;2;
55754;PMS5003;41674;52.290;-1.474;2023-05-10T10:29:19;5;3;
55754;PMS5003;41674;52.290;-1.474;2023-05-10T10:31:46;4;2;
55754;PMS5003;41674;52.290;-1.474;2023-05-10T10:36:45;4;4;
55754;PMS5003;41674;52.290;-1.474;2023-05-10T10:39:14;5;3;
55754;PMS5003;41674;52.290;-1.474;2023-05-10T10:44:26;3;3;
55754;PMS5003;41674;52.290;-1.474;2023-05-10T10:49:12;3;3;
55754;PMS5003;41674;52.290;-1.474;2023-05-10T10:52:12;4;4;
55754;PMS5003;41674;52.290;-1.474;2023-05-10T10:54:11;3;3;
55754;PMS5003;41674;52.290;-1.474;2023-05-10T10:56:40;4;2;
55754;PMS5003;41674;52.290;-1.474;2023-05-10T10:59:10;7;4;
55754;PMS5003;41674;52.290;-1.474;2023-05-10T11:01:39;4;3;
55754;PMS5003;41674;52.290;-1.474;2023-05-10T11:04:17;3;3;
55754;PMS5003;41674;52.290;-1.474;2023-05-10T11:06:38;3;2;
55754;PMS5003;41674;52.290;-1.474;2023-05-10T11:09:08;4;3;
55754;PMS5003;41674;52.290;-1.474;2023-05-10T11:14:07;4;3;
55754;PMS5003;41674;52.290;-1.474;2023-05-10T11:16:40;4;3;
55754;PMS5003;41674;52.290;-1.474;2023-05-10T11:19:07;19;15;
55754;PMS5003;41674;52.290;-1.474;2023-05-10T11:21:44;4;4;
55754;PMS5003;41674;52.290;-1.474;2023-05-10T11:24:09;5;3;
55754;PMS5003;41674;52.290;-1.474;2023-05-10T11:26:34;4;4;
55754;PMS5003;41674;52.290;-1.474;2023-05-10T11:29:03;3;3;
55754;PMS5003;41674;52.290;-1.474;2023-05-10T11:31:34;2;2;
55754;PMS5003;41674;52.290;-1.474;2023-05-10T11:34:03;4;4;
55754;PMS5003;41674;52.290;-1.474;2023-05-10T11:36:32;1;1;
55754;PMS5003;41674;52.290;-1.474;2023-05-10T11:39:02;3;3;
55754;PMS5003;41674;52.290;-1.474;2023-05-10T11:41:31;3;3;
55754;PMS5003;41674;52.290;-1.474;2023-05-10T11:44:01;4;4;
55754;PMS5003;41674;52.290;-1.474;2023-05-10T11:46:30;4;3;
55754;PMS5003;41674;52.290;-1.474;2023-05-10T11:49:00;5;5;
55754;PMS5003;41674;52.290;-1.474;2023-05-10T11:51:32;5;4;
55754;PMS5003;41674;52.290;-1.474;2023-05-10T11:53:59;4;4;
55754;PMS5003;41674;52.290;-1.474;2023-05-10T11:56:28;4;4;
55754;PMS5003;41674;52.290;-1.474;2023-05-10T11:58:58;4;3;
55754;PMS5003;41674;52.290;-1.474;2023-05-10T12:01:28;2;2;
55754;PMS5003;41674;52.290;-1.474;2023-05-10T12:03:57;3;3;
55754;PMS5003;41674;52.290;-1.474;2023-05-10T12:06:26;4;3;
55754;PMS5003;41674;52.290;-1.474;2023-05-10T12:08:56;3;3;
55754;PMS5003;41674;52.290;-1.474;2023-05-10T12:11:26;3;3;
55754;PMS5003;41674;52.290;-1.474;2023-05-10T12:13:55;1;1;
55754;PMS5003;41674;52.290;-1.474;2023-05-10T12:16:25;6;5;
55754;PMS5003;41674;52.290;-1.474;2023-05-10T12:18:55;2;2;
55754;PMS5003;41674;52.290;-1.474;2023-05-10T12:21:23;4;2;
55754;PMS5003;41674;52.290;-1.474;2023-05-10T12:23:54;3;3;
55754;PMS5003;41674;52.290;-1.474;2023-05-10T12:26:24;2;2;
55754;PMS5003;41674;52.290;-1.474;2023-05-10T12:28:52;1;1;
55754;PMS5003;41674;52.290;-1.474;2023-05-10T12:31:21;4;2;
55754;PMS5003;41674;52.290;-1.474;2023-05-10T12:33:51;3;3;
55754;PMS5003;41674;52.290;-1.474;2023-05-10T12:36:23;1;1;
55754;PMS5003;41674;52.290;-1.474;2023-05-10T12:38:50;4;2;
55754;PMS5003;41674;52.290;-1.474;2023-05-10T12:41:19;2;2;
55754;PMS5003;41674;52.290;-1.474;2023-05-10T12:43:49;3;3;
55754;PMS5003;41674;52.290;-1.474;2023-05-10T12:46:18;3;3;
55754;PMS5003;41674;52.290;-1.474;2023-05-10T12:48:48;0;0;
55754;PMS5003;41674;52.290;-1.474;2023-05-10T12:51:17;1;1;
55754;PMS5003;41674;52.290;-1.474;2023-05-10T12:53:47;1;1;
55754;PMS5003;41674;52.290;-1.474;2023-05-10T12:56:17;2;2;
55754;PMS5003;41674;52.290;-1.474;2023-05-10T12:58:46;2;2;
55754;PMS5003;41674;52.290;-1.474;2023-05-10T13:01:16;1;1;
55754;PMS5003;41674;52.290;-1.474;2023-05-10T13:03:45;1;1;
55754;PMS5003;41674;52.290;-1.474;2023-05-10T13:06:15;2;1;
55754;PMS5003;41674;52.290;-1.474;2023-05-10T13:08:44;1;1;
55754;PMS5003;41674;52.290;-1.474;2023-05-10T13:11:14;1;1;
55754;PMS5003;41674;52.290;-1.474;2023-05-10T13:13:43;0;0;
55754;PMS5003;41674;52.290;-1.474;2023-05-10T13:16:12;0;0;
55754;PMS5003;41674;52.290;-1.474;2023-05-10T13:18:42;0;0;
55754;PMS5003;41674;52.290;-1.474;2023-05-10T13:21:11;0;0;
55754;PMS5003;41674;52.290;-1.474;2023-05-10T13:23:41;0;0;
55754;PMS5003;41674;52.290;-1.474;2023-05-10T13:26:11;0;0;
55754;PMS5003;41674;52.290;-1.474;2023-05-10T13:28:40;0;0;
55754;PMS5003;41674;52.290;-1.474;2023-05-10T13:31:10;1;1;
55754;PMS5003;41674;52.290;-1.474;2023-05-10T13:33:39;0;0;
55754;PMS5003;41674;52.290;-1.474;2023-05-10T13:36:09;0;0;
55754;PMS5003;41674;52.290;-1.474;2023-05-10T13:38:38;0;0;
55754;PMS5003;41674;52.290;-1.474;2023-05-10T13:41:08;1;1;
55754;PMS5003;41674;52.290;-1.474;2023-05-10T13:43:37;1;0;
55754;PMS5003;41674;52.290;-1.474;2023-05-10T13:46:07;2;2;
55754;PMS5003;41674;52.290;-1.474;2023-05-10T13:48:36;1;1;
55754;PMS5003;41674;52.290;-1.474;2023-05-10T13:51:06;1;0;
55754;PMS5003;41674;52.290;-1.474;2023-05-10T13:53:35;3;2;
55754;PMS5003;41674;52.290;-1.474;2023-05-10T13:56:05;4;2;
55754;PMS5003;41674;52.290;-1.474;2023-05-10T13:58:34;2;2;
55754;PMS5003;41674;52.290;-1.474;2023-05-10T14:01:04;3;1;
55754;PMS5003;41674;52.290;-1.474;2023-05-10T14:03:33;2;2;
55754;PMS5003;41674;52.290;-1.474;2023-05-10T14:06:03;4;2;
55754;PMS5003;41674;52.290;-1.474;2023-05-10T14:08:33;2;2;
55754;PMS5003;41674;52.290;-1.474;2023-05-10T14:11:02;2;2;
55754;PMS5003;41674;52.290;-1.474;2023-05-10T14:13:31;2;2;
55754;PMS5003;41674;52.290;-1.474;2023-05-10T14:16:01;4;3;
55754;PMS5003;41674;52.290;-1.474;2023-05-10T14:18:30;3;1;
55754;PMS5003;41674;52.290;-1.474;2023-05-10T14:21:01;3;3;
55754;PMS5003;41674;52.290;-1.474;2023-05-10T14:23:30;2;2;
55754;PMS5003;41674;52.290;-1.474;2023-05-10T14:25:59;2;2;
55754;PMS5003;41674;52.290;-1.474;2023-05-10T14:28:29;2;2;
55754;PMS5003;41674;52.290;-1.474;2023-05-10T14:30:58;4;3;
55754;PMS5003;41674;52.290;-1.474;2023-05-10T14:33:27;3;3;
55754;PMS5003;41674;52.290;-1.474;2023-05-10T14:35:57;1;1;
55754;PMS5003;41674;52.290;-1.474;2023-05-10T14:38:27;2;1;
55754;PMS5003;41674;52.290;-1.474;2023-05-10T14:40:56;3;3;
55754;PMS5003;41674;52.290;-1.474;2023-05-10T14:43:25;1;1;
55754;PMS5003;41674;52.290;-1.474;2023-05-10T14:45:55;2;2;
55754;PMS5003;41674;52.290;-1.474;2023-05-10T14:48:25;2;2;
55754;PMS5003;41674;52.290;-1.474;2023-05-10T14:50:54;0;0;
55754;PMS5003;41674;52.290;-1.474;2023-05-10T14:53:24;5;5;
55754;PMS5003;41674;52.290;-1.474;2023-05-10T14:55:53;9;8;
55754;PMS5003;41674;52.290;-1.474;2023-05-10T14:58:23;5;5;
55754;PMS5003;41674;52.290;-1.474;2023-05-10T15:03:22;1;1;
55754;PMS5003;41674;52.290;-1.474;2023-05-10T15:05:52;2;1;
55754;PMS5003;41674;52.290;-1.474;2023-05-10T15:08:21;1;1;
55754;PMS5003;41674;52.290;-1.474;2023-05-10T15:10:51;1;1;
55754;PMS5003;41674;52.290;-1.474;2023-05-10T15:13:20;1;1;
55754;PMS5003;41674;52.290;-1.474;2023-05-10T15:15:50;1;1;
55754;PMS5003;41674;52.290;-1.474;2023-05-10T15:18:19;1;0;
55754;PMS5003;41674;52.290;-1.474;2023-05-10T15:20:49;0;0;
55754;PMS5003;41674;52.290;-1.474;2023-05-10T15:23:18;0;0;
55754;PMS5003;41674;52.290;-1.474;2023-05-10T15:25:48;0;0;
55754;PMS5003;41674;52.290;-1.474;2023-05-10T15:28:17;2;2;
55754;PMS5003;41674;52.290;-1.474;2023-05-10T15:30:47;1;1;
55754;PMS5003;41674;52.290;-1.474;2023-05-10T15:33:16;1;1;
55754;PMS5003;41674;52.290;-1.474;2023-05-10T15:35:46;0;0;
55754;PMS5003;41674;52.290;-1.474;2023-05-10T15:38:15;0;0;
55754;PMS5003;41674;52.290;-1.474;2023-05-10T15:40:45;2;2;
55754;PMS5003;41674;52.290;-1.474;2023-05-10T15:43:15;1;1;
55754;PMS5003;41674;52.290;-1.474;2023-05-10T15:45:44;1;1;
55754;PMS5003;41674;52.290;-1.474;2023-05-10T15:48:14;1;1;
55754;PMS5003;41674;52.290;-1.474;2023-05-10T15:50:43;0;0;
55754;PMS5003;41674;52.290;-1.474;2023-05-10T15:53:13;2;2;
55754;PMS5003;41674;52.290;-1.474;2023-05-10T15:55:42;0;0;
55754;PMS5003;41674;52.290;-1.474;2023-05-10T15:58:12;1;1;
55754;PMS5003;41674;52.290;-1.474;2023-05-10T16:00:41;2;2;
55754;PMS5003;41674;52.290;-1.474;2023-05-10T16:03:11;1;1;
55754;PMS5003;41674;52.290;-1.474;2023-05-10T16:05:40;0;0;
55754;PMS5003;41674;52.290;-1.474;2023-05-10T16:08:10;1;1;
55754;PMS5003;41674;52.290;-1.474;2023-05-10T16:10:40;2;2;
55754;PMS5003;41674;52.290;-1.474;2023-05-10T16:13:09;2;2;
55754;PMS5003;41674;52.290;-1.474;2023-05-10T16:15:38;1;1;
55754;PMS5003;41674;52.290;-1.474;2023-05-10T16:18:08;2;1;
55754;PMS5003;41674;52.290;-1.474;2023-05-10T16:20:38;1;1;
55754;PMS5003;41674;52.290;-1.474;2023-05-10T16:23:07;2;1;
55754;PMS5003;41674;52.290;-1.474;2023-05-10T16:25:37;2;2;
55754;PMS5003;41674;52.290;-1.474;2023-05-10T16:28:06;2;1;
55754;PMS5003;41674;52.290;-1.474;2023-05-10T16:30:36;3;2;
55754;PMS5003;41674;52.290;-1.474;2023-05-10T16:33:05;1;1;
55754;PMS5003;41674;52.290;-1.474;2023-05-10T16:35:35;1;1;
55754;PMS5003;41674;52.290;-1.474;2023-05-10T16:38:04;0;0;
55754;PMS5003;41674;52.290;-1.474;2023-05-10T16:40:34;0;0;
55754;PMS5003;41674;52.290;-1.474;2023-05-10T16:43:03;1;1;
55754;PMS5003;41674;52.290;-1.474;2023-05-10T16:45:33;0;0;
55754;PMS5003;41674;52.290;-1.474;2023-05-10T16:48:02;0;0;
55754;PMS5003;41674;52.290;-1.474;2023-05-10T16:50:32;0;0;
55754;PMS5003;41674;52.290;-1.474;2023-05-10T16:53:01;1;1;
55754;PMS5003;41674;52.290;-1.474;2023-05-10T16:55:31;1;1;
55754;PMS5003;41674;52.290;-1.474;2023-05-10T16:58:00;0;0;